Time;durP1;ratioP1;P1;durP2;ratioP2;P2;SDS_P1;SDS_P2;PMS_P1;PMS_P2;Temp;Humidity;BMP_temperature;BMP_pressure;BME280_temperature;BME280_humidity;BME280_pressure;Samples;Min_cycle;Max_cycle;Signal;HPM_P1;HPM_P2
2021/12/14 00:00:34;;;;;;;12.57;10.77;;;9.40;77.40;;;;;;4994233;28;20497;-74
2021/12/14 00:03:00;;;;;;;16.83;11.63;;;9.40;77.30;;;;;;4894454;29;20060;-74
2021/12/14 00:05:28;;;;;;;14.02;11.32;;;9.40;77.40;;;;;;4893893;29;20061;-74
2021/12/14 00:07:57;;;;;;;14.32;11.05;;;9.40;77.40;;;;;;4894229;29;20057;-74
2021/12/14 00:13:01;;;;;;;14.40;10.90;;;9.40;77.40;;;;;;4878236;29;20060;-74
2021/12/14 00:15:28;;;;;;;14.80;11.20;;;9.40;77.40;;;;;;4878526;29;20049;-74
2021/12/14 00:17:57;;;;;;;15.52;12.18;;;9.30;77.30;;;;;;4896037;29;20511;-74
2021/12/14 00:20:25;;;;;;;16.08;12.38;;;9.30;77.30;;;;;;4880702;29;20117;-74
2021/12/14 00:25:44;;;;;;;15.38;12.25;;;9.40;77.30;;;;;;4891160;29;20049;-74
2021/12/14 00:28:29;;;;;;;16.33;13.10;;;9.30;77.20;;;;;;4887873;29;20131;-74
2021/12/14 00:30:58;;;;;;;15.20;12.15;;;9.30;77.30;;;;;;4895974;29;20049;-74
2021/12/14 00:33:30;;;;;;;18.83;14.27;;;9.30;77.40;;;;;;4875698;29;20090;-74
2021/12/14 00:35:56;;;;;;;16.80;12.98;;;9.30;77.40;;;;;;4887697;29;20535;-74
2021/12/14 00:38:22;;;;;;;18.00;13.13;;;9.30;77.40;;;;;;4870939;29;20088;-74
2021/12/14 00:41:01;;;;;;;20.70;14.65;;;9.30;77.40;;;;;;4961121;28;20101;-74
2021/12/14 00:43:27;;;;;;;20.48;14.43;;;9.30;77.40;;;;;;4988765;28;20053;-75
2021/12/14 00:45:53;;;;;;;16.65;13.73;;;9.30;77.40;;;;;;4992407;28;20383;-74
2021/12/14 00:48:20;;;;;;;21.35;14.30;;;9.30;77.40;;;;;;4988821;28;20113;-74
2021/12/14 00:50:50;;;;;;;17.05;13.90;;;9.30;77.40;;;;;;4994484;28;20504;-74
2021/12/14 00:53:16;;;;;;;17.05;13.85;;;9.30;77.50;;;;;;4984687;28;20030;-74
2021/12/14 00:55:45;;;;;;;17.02;13.63;;;9.30;77.50;;;;;;4995869;28;20046;-75
2021/12/14 00:58:13;;;;;;;18.70;13.63;;;9.30;77.50;;;;;;4985411;28;20118;-74
2021/12/14 01:00:44;;;;;;;18.35;14.85;;;9.30;77.50;;;;;;4961778;28;20050;-74
2021/12/14 01:03:10;;;;;;;15.68;12.93;;;9.30;77.50;;;;;;4984917;28;20466;-74
2021/12/14 01:05:40;;;;;;;17.17;13.60;;;9.30;77.50;;;;;;4972634;28;20153;-74
2021/12/14 01:08:09;;;;;;;19.13;15.13;;;9.30;77.60;;;;;;4992469;28;20038;-74
2021/12/14 01:10:45;;;;;;;18.65;15.40;;;9.30;77.50;;;;;;4997096;28;20054;-74
2021/12/14 01:13:11;;;;;;;18.15;14.77;;;9.30;77.50;;;;;;4987028;28;20050;-74
2021/12/14 01:16:00;;;;;;;19.83;15.23;;;9.30;77.50;;;;;;4990442;28;20101;-74
2021/12/14 01:18:46;;;;;;;19.08;14.23;;;9.30;77.40;;;;;;4984512;28;20039;-74
2021/12/14 01:24:06;;;;;;;19.23;15.02;;;9.30;77.40;;;;;;4993099;28;20097;-74
2021/12/14 01:26:34;;;;;;;20.05;15.50;;;9.20;77.40;;;;;;4993518;28;20034;-74
2021/12/14 01:29:01;;;;;;;17.20;14.32;;;9.30;77.40;;;;;;4994015;28;20121;-74
2021/12/14 01:31:34;;;;;;;20.35;14.55;;;9.20;77.30;;;;;;4992683;28;20093;-74
2021/12/14 01:34:21;;;;;;;18.67;15.48;;;9.20;77.30;;;;;;4979348;28;20371;-75
2021/12/14 01:36:53;;;;;;;21.45;15.77;;;9.20;77.10;;;;;;4960448;28;20046;-74
2021/12/14 01:39:44;;;;;;;18.80;14.45;;;9.20;77.20;;;;;;4988408;28;20035;-73
2021/12/14 01:42:20;;;;;;;22.10;16.60;;;9.20;77.20;;;;;;4994194;28;20054;-73
2021/12/14 01:44:51;;;;;;;21.27;16.67;;;9.20;77.20;;;;;;4992784;28;20509;-74
2021/12/14 01:47:21;;;;;;;18.70;15.13;;;9.20;77.20;;;;;;4985766;28;20045;-74
2021/12/14 01:49:47;;;;;;;19.42;14.35;;;9.20;77.30;;;;;;4993928;28;20050;-73
2021/12/14 01:52:18;;;;;;;21.77;15.10;;;9.20;77.30;;;;;;4978414;28;20507;-74
2021/12/14 01:54:48;;;;;;;20.50;15.75;;;9.20;77.30;;;;;;4993077;28;20043;-74
2021/12/14 01:57:20;;;;;;;21.75;16.27;;;9.20;77.40;;;;;;4994393;28;20046;-74
2021/12/14 01:59:47;;;;;;;21.27;16.30;;;9.20;77.30;;;;;;4978854;28;20490;-74
2021/12/14 02:02:25;;;;;;;22.25;16.17;;;9.20;77.30;;;;;;4981048;28;20490;-74
2021/12/14 02:04:53;;;;;;;20.98;16.25;;;9.20;77.40;;;;;;4989971;28;20042;-74
2021/12/14 02:07:20;;;;;;;19.58;16.08;;;9.20;77.40;;;;;;4978650;28;20437;-73
2021/12/14 02:09:52;;;;;;;20.60;16.60;;;9.20;77.30;;;;;;4964644;28;20119;-74
2021/12/14 02:12:22;;;;;;;21.08;16.83;;;9.20;77.40;;;;;;4977867;28;20058;-74
2021/12/14 02:14:49;;;;;;;21.52;15.45;;;9.20;77.40;;;;;;4985213;28;20050;-74
2021/12/14 02:17:18;;;;;;;21.73;16.90;;;9.20;77.40;;;;;;4977386;28;20038;-74
2021/12/14 02:19:45;;;;;;;22.60;17.35;;;9.20;77.50;;;;;;4984779;28;20054;-73
2021/12/14 02:22:11;;;;;;;20.73;15.82;;;9.20;77.50;;;;;;4975990;28;20051;-74
2021/12/14 02:24:40;;;;;;;23.50;17.05;;;9.20;77.50;;;;;;4978190;28;20070;-74
2021/12/14 02:27:06;;;;;;;20.88;16.33;;;9.20;77.40;;;;;;4977168;28;20489;-74
2021/12/14 02:29:40;;;;;;;22.42;17.25;;;9.20;77.40;;;;;;4980969;28;20127;-73
2021/12/14 02:32:13;;;;;;;20.77;16.38;;;9.20;77.50;;;;;;4978666;28;20050;-74
2021/12/14 02:34:43;;;;;;;23.95;17.23;;;9.20;77.50;;;;;;4985522;28;20125;-74
2021/12/14 02:37:09;;;;;;;23.25;17.80;;;9.20;77.60;;;;;;4972740;28;20049;-74
2021/12/14 02:42:06;;;;;;;24.70;17.80;;;9.20;77.60;;;;;;4992085;28;20058;-74
2021/12/14 02:44:32;;;;;;;23.42;18.27;;;9.20;77.60;;;;;;4991287;28;20097;-74
2021/12/14 02:47:05;;;;;;;23.05;17.67;;;9.20;77.50;;;;;;4976207;28;20081;-74
2021/12/14 02:49:33;;;;;;;23.23;18.02;;;9.20;77.50;;;;;;4968512;28;20080;-74
2021/12/14 02:52:05;;;;;;;26.88;18.02;;;9.20;77.60;;;;;;4993621;28;20050;-74
2021/12/14 02:54:55;;;;;;;24.88;17.90;;;9.20;77.60;;;;;;4990798;28;20045;-74
2021/12/14 02:57:26;;;;;;;23.05;17.83;;;9.20;77.50;;;;;;4966148;28;20061;-74
2021/12/14 02:59:54;;;;;;;24.90;17.38;;;9.20;77.70;;;;;;4977992;28;20050;-74
2021/12/14 03:02:23;;;;;;;27.65;18.80;;;9.20;77.70;;;;;;4976189;28;20118;-74
2021/12/14 03:04:59;;;;;;;27.73;20.02;;;9.20;77.70;;;;;;4976507;28;20047;-73
2021/12/14 03:07:34;;;;;;;27.05;18.70;;;9.20;77.70;;;;;;4988294;28;20046;-74
2021/12/14 03:12:49;;;;;;;28.65;18.88;;;9.20;77.80;;;;;;4993096;28;20042;-74
2021/12/14 03:15:23;;;;;;;26.35;18.35;;;9.20;77.80;;;;;;4974167;28;20478;-74
2021/12/14 03:17:51;;;;;;;24.65;18.85;;;9.20;77.80;;;;;;4985997;28;20057;-73
2021/12/14 03:20:21;;;;;;;25.77;19.63;;;9.10;77.80;;;;;;4979202;28;20086;-73
2021/12/14 03:23:09;;;;;;;25.90;19.92;;;9.10;77.90;;;;;;4975121;28;20039;-73
2021/12/14 03:25:38;;;;;;;28.20;19.63;;;9.10;77.90;;;;;;4976548;28;20117;-73
2021/12/14 03:28:06;;;;;;;29.88;20.92;;;9.10;77.90;;;;;;4974892;28;20043;-72
2021/12/14 03:30:39;;;;;;;29.38;20.67;;;9.10;77.90;;;;;;4979033;28;20037;-73
2021/12/14 03:33:12;;;;;;;28.17;20.15;;;9.10;77.90;;;;;;4975017;28;20038;-73
2021/12/14 03:35:51;;;;;;;30.00;22.20;;;9.20;78.00;;;;;;4992218;28;20038;-73
2021/12/14 03:38:19;;;;;;;30.30;21.67;;;9.10;78.00;;;;;;4975356;28;20047;-73
2021/12/14 03:40:57;;;;;;;28.80;22.65;;;9.10;78.00;;;;;;4979711;28;20401;-73
2021/12/14 03:43:23;;;;;;;26.15;19.45;;;9.10;78.00;;;;;;4994521;28;20050;-73
2021/12/14 03:45:49;;;;;;;29.60;21.00;;;9.10;78.00;;;;;;4971656;28;20406;-73
2021/12/14 03:48:15;;;;;;;27.73;20.27;;;9.10;78.00;;;;;;4974850;28;20042;-73
2021/12/14 03:50:41;;;;;;;33.58;22.73;;;9.10;78.00;;;;;;4977495;28;20047;-73
2021/12/14 03:53:12;;;;;;;30.88;21.75;;;9.10;78.00;;;;;;4992495;28;20070;-73
2021/12/14 03:55:47;;;;;;;34.83;24.17;;;9.10;78.00;;;;;;4992902;28;20516;-73
2021/12/14 03:58:21;;;;;;;30.60;22.02;;;9.10;78.00;;;;;;4984836;28;20141;-72
2021/12/14 04:01:05;;;;;;;31.50;22.85;;;9.10;78.00;;;;;;4988688;28;20050;-73
2021/12/14 04:03:31;;;;;;;31.65;21.70;;;9.20;78.10;;;;;;4986188;28;20043;-73
2021/12/14 04:05:57;;;;;;;32.92;22.05;;;9.10;78.00;;;;;;4983679;28;20039;-73
2021/12/14 04:08:25;;;;;;;28.77;20.70;;;9.10;78.00;;;;;;4981078;28;20496;-73
2021/12/14 04:10:52;;;;;;;30.95;23.02;;;9.10;78.00;;;;;;4993359;28;20042;-73
2021/12/14 04:13:21;;;;;;;34.03;23.08;;;9.10;78.00;;;;;;4988559;28;20047;-73
2021/12/14 04:15:47;;;;;;;29.45;21.15;;;9.10;78.00;;;;;;4976694;28;20047;-73
2021/12/14 04:18:13;;;;;;;31.80;22.42;;;9.10;77.90;;;;;;4991081;28;20051;-73
2021/12/14 04:20:41;;;;;;;27.70;20.55;;;9.10;78.00;;;;;;4993547;28;20042;-73
2021/12/14 04:23:18;;;;;;;31.50;22.60;;;9.10;78.00;;;;;;4976857;28;20046;-73
2021/12/14 04:25:45;;;;;;;30.92;22.25;;;9.10;78.00;;;;;;4976494;28;20074;-73
2021/12/14 04:28:15;;;;;;;33.88;24.80;;;9.10;78.00;;;;;;4979401;28;20093;-74
2021/12/14 04:30:42;;;;;;;33.15;23.05;;;9.10;78.00;;;;;;4988961;28;20050;-72
2021/12/14 04:33:11;;;;;;;30.70;23.33;;;9.10;78.00;;;;;;4995085;28;20042;-73
2021/12/14 04:35:50;;;;;;;29.35;21.30;;;9.10;78.00;;;;;;4992558;28;20411;-73
2021/12/14 04:38:25;;;;;;;30.50;22.80;;;9.10;78.00;;;;;;4977454;28;20042;-73
2021/12/14 04:52:00;;;;;;;31.90;23.42;;;9.00;78.10;;;;;;4994800;28;20494;-73
2021/12/14 04:54:28;;;;;;;34.22;22.95;;;9.00;78.10;;;;;;4977836;28;20478;-73
2021/12/14 04:56:54;;;;;;;30.48;22.52;;;9.00;78.10;;;;;;4980847;28;20418;-73
2021/12/14 04:59:28;;;;;;;28.33;21.98;;;9.00;78.10;;;;;;4990806;28;20045;-73
2021/12/14 05:01:59;;;;;;;31.90;23.98;;;9.00;78.20;;;;;;4991125;28;20121;-73
2021/12/14 05:04:26;;;;;;;33.55;24.23;;;9.00;78.20;;;;;;4995140;28;20482;-73
2021/12/14 05:07:03;;;;;;;34.80;24.58;;;9.00;78.10;;;;;;4994528;28;20077;-72
2021/12/14 05:09:35;;;;;;;29.60;22.98;;;9.10;78.60;;;;;;4995093;28;20137;-72
2021/12/14 05:12:11;;;;;;;31.98;23.55;;;9.00;78.10;;;;;;4978456;28;20051;-72
2021/12/14 05:14:39;;;;;;;31.10;23.77;;;9.00;78.20;;;;;;4996505;28;20064;-72
2021/12/14 05:17:09;;;;;;;31.90;24.05;;;9.00;78.20;;;;;;4994664;28;20081;-73
2021/12/14 05:19:39;;;;;;;32.28;24.40;;;9.00;78.20;;;;;;4979738;28;20042;-72
2021/12/14 05:22:09;;;;;;;36.78;25.60;;;9.00;78.20;;;;;;4961286;28;20074;-73
2021/12/14 05:24:39;;;;;;;35.47;24.25;;;9.00;78.20;;;;;;4985947;28;20042;-73
2021/12/14 05:27:08;;;;;;;32.65;24.13;;;9.00;78.30;;;;;;4978920;28;20046;-73
2021/12/14 05:29:34;;;;;;;31.30;24.20;;;9.00;78.30;;;;;;4978168;28;20482;-72
2021/12/14 05:32:03;;;;;;;33.60;25.35;;;9.00;78.30;;;;;;4977256;28;20047;-72
2021/12/14 05:34:30;;;;;;;32.75;23.67;;;9.00;78.40;;;;;;4978337;28;20042;-73
2021/12/14 05:36:58;;;;;;;32.97;24.88;;;9.00;78.40;;;;;;4976873;28;20047;-73
2021/12/14 05:44:37;;;;;;;34.00;25.15;;;9.00;78.50;;;;;;4980205;28;20138;-72
2021/12/14 05:47:10;;;;;;;39.08;28.30;;;9.00;78.60;;;;;;4977045;28;20043;-73
2021/12/14 05:49:39;;;;;;;34.95;26.63;;;9.00;78.60;;;;;;4977916;28;20054;-72
2021/12/14 05:52:11;;;;;;;35.55;26.65;;;9.00;78.60;;;;;;4995341;28;20050;-73
2021/12/14 05:54:38;;;;;;;35.30;26.55;;;9.00;79.00;;;;;;4969909;28;20077;-72
2021/12/14 05:57:06;;;;;;;33.13;25.15;;;9.00;78.60;;;;;;4994931;28;20088;-72
2021/12/14 05:59:33;;;;;;;37.15;26.98;;;9.00;78.60;;;;;;4982562;28;20081;-72
2021/12/14 06:02:01;;;;;;;37.10;27.83;;;9.00;78.70;;;;;;4978628;28;20093;-73
2021/12/14 06:04:33;;;;;;;37.53;27.48;;;9.00;78.70;;;;;;4981029;28;20046;-72
2021/12/14 06:06:59;;;;;;;37.97;28.13;;;9.00;78.70;;;;;;4960395;28;20286;-73
2021/12/14 06:09:31;;;;;;;37.00;27.65;;;9.00;78.70;;;;;;4991043;28;20059;-73
2021/12/14 06:12:06;;;;;;;37.58;27.50;;;9.00;78.80;;;;;;4984737;28;20063;-73
2021/12/14 06:14:32;;;;;;;38.47;28.90;;;9.00;78.80;;;;;;4986287;28;20040;-73
2021/12/14 06:17:03;;;;;;;35.55;26.40;;;9.00;78.80;;;;;;4994955;28;20170;-73
2021/12/14 06:19:36;;;;;;;34.78;27.60;;;9.00;78.80;;;;;;4976324;28;20042;-72
2021/12/14 06:22:13;;;;;;;34.65;26.42;;;9.00;78.90;;;;;;4993768;28;20038;-73
2021/12/14 06:24:41;;;;;;;37.70;28.15;;;9.00;78.90;;;;;;4992737;28;20042;-73
2021/12/14 06:27:11;;;;;;;37.58;29.30;;;9.00;78.90;;;;;;4973985;28;20073;-72
2021/12/14 06:29:43;;;;;;;40.85;29.23;;;9.00;78.90;;;;;;4989003;28;20054;-72
2021/12/14 06:32:16;;;;;;;39.88;28.35;;;9.00;78.90;;;;;;4975187;28;20089;-73
2021/12/14 06:34:54;;;;;;;40.40;29.17;;;9.00;78.90;;;;;;4979765;28;20413;-73
2021/12/14 06:37:28;;;;;;;40.67;29.63;;;9.00;78.80;;;;;;4959632;28;20490;-72
2021/12/14 06:40:10;;;;;;;39.78;28.58;;;9.00;78.80;;;;;;4976131;28;20051;-73
2021/12/14 06:42:57;;;;;;;38.72;29.42;;;9.00;78.90;;;;;;4987688;28;20498;-72
2021/12/14 06:45:55;;;;;;;38.53;29.17;;;9.00;78.90;;;;;;4983362;28;20051;-72
2021/12/14 06:48:29;;;;;;;43.13;30.50;;;9.00;79.00;;;;;;4982443;28;20038;-72
2021/12/14 06:50:58;;;;;;;;;;;9.00;79.00;;;;;;4977415;28;20411;-72
2021/12/14 06:53:24;;;;;;;34.88;26.67;;;9.00;78.80;;;;;;4974703;28;19922;-72
2021/12/14 06:55:55;;;;;;;38.60;29.20;;;9.00;79.00;;;;;;4976328;28;20389;-72
2021/12/14 06:58:28;;;;;;;41.42;28.95;;;9.00;79.00;;;;;;4980365;28;20034;-72
2021/12/14 07:01:14;;;;;;;39.93;28.90;;;9.00;79.00;;;;;;4962390;28;20510;-72
2021/12/14 07:03:46;;;;;;;40.55;29.65;;;9.00;78.90;;;;;;4974504;28;20309;-73
2021/12/14 07:06:37;;;;;;;40.67;28.70;;;9.00;79.00;;;;;;4975156;28;20491;-73
2021/12/14 07:09:16;;;;;;;41.33;31.35;;;9.00;78.90;;;;;;4939249;28;1069190;-72
2021/12/14 07:11:47;;;;;;;42.75;31.30;;;9.00;79.00;;;;;;4978576;28;20129;-72
2021/12/14 07:14:24;;;;;;;40.72;30.30;;;9.00;79.00;;;;;;4963676;28;20046;-72
2021/12/14 07:16:50;;;;;;;41.40;31.52;;;9.00;79.00;;;;;;4992107;28;20046;-73
2021/12/14 07:19:16;;;;;;;40.95;28.98;;;9.00;79.00;;;;;;4984442;28;20054;-73
2021/12/14 07:21:47;;;;;;;40.38;30.02;;;9.00;79.00;;;;;;4976366;28;20050;-72
2021/12/14 07:24:22;;;;;;;40.30;30.38;;;9.00;79.10;;;;;;4992009;28;20081;-72
2021/12/14 07:27:14;;;;;;;41.33;30.35;;;9.00;79.10;;;;;;4993871;28;20061;-72
2021/12/14 07:29:40;;;;;;;42.20;30.83;;;9.00;79.00;;;;;;4979599;28;20043;-72
2021/12/14 07:32:06;;;;;;;41.17;30.35;;;9.00;79.10;;;;;;4976232;28;20078;-73
2021/12/14 07:34:32;;;;;;;40.80;30.60;;;9.00;79.20;;;;;;4974736;28;20483;-73
2021/12/14 07:36:58;;;;;;;42.22;30.42;;;9.00;79.20;;;;;;4990014;28;20081;-72
2021/12/14 07:39:24;;;;;;;42.53;31.55;;;9.00;79.20;;;;;;4994480;28;20447;-73
2021/12/14 07:41:53;;;;;;;41.30;29.25;;;9.00;79.20;;;;;;4981280;28;20039;-72
2021/12/14 07:44:22;;;;;;;35.55;27.60;;;9.00;79.20;;;;;;4974815;28;20513;-73
2021/12/14 07:46:55;;;;;;;42.22;30.13;;;9.00;79.20;;;;;;4958622;28;20055;-73
2021/12/14 07:49:40;;;;;;;38.67;29.95;;;9.10;79.20;;;;;;4974895;28;20046;-73
2021/12/14 07:52:08;;;;;;;37.22;27.75;;;9.10;79.60;;;;;;4975979;28;20412;-73
2021/12/14 07:54:43;;;;;;;36.38;28.90;;;9.10;79.20;;;;;;4974733;28;20054;-72
2021/12/14 07:57:29;;;;;;;40.78;31.13;;;9.10;79.20;;;;;;4976274;28;20505;-73
2021/12/14 08:00:12;;;;;;;38.83;30.40;;;9.10;79.20;;;;;;4974968;28;20063;-73
2021/12/14 08:02:42;;;;;;;43.05;31.63;;;9.10;79.20;;;;;;4978801;28;20050;-73
2021/12/14 08:05:14;;;;;;;40.17;31.00;;;9.10;79.10;;;;;;4978606;28;20133;-72
2021/12/14 08:07:44;;;;;;;42.63;31.70;;;9.10;79.10;;;;;;4994645;28;20045;-73
2021/12/14 08:10:27;;;;;;;39.15;29.83;;;9.10;79.10;;;;;;4976970;28;20062;-73
2021/12/14 08:13:14;;;;;;;44.53;31.17;;;9.10;79.10;;;;;;4976928;28;20043;-72
2021/12/14 08:15:52;;;;;;;41.45;31.05;;;9.10;79.10;;;;;;4978782;28;20398;-72
2021/12/14 08:18:27;;;;;;;39.15;29.30;;;9.10;79.10;;;;;;4959307;28;20051;-72
2021/12/14 08:20:58;;;;;;;42.65;32.08;;;9.10;79.10;;;;;;4959130;28;20047;-73
2021/12/14 08:23:48;;;;;;;40.38;30.27;;;9.10;79.10;;;;;;4959301;28;20054;-73
2021/12/14 08:26:20;;;;;;;40.40;30.25;;;9.10;79.10;;;;;;4969049;28;20057;-73
2021/12/14 08:28:54;;;;;;;42.05;30.77;;;9.10;79.20;;;;;;4959218;28;20418;-72
2021/12/14 08:31:23;;;;;;;40.37;31.10;;;9.10;79.10;;;;;;4960296;28;20039;-72
2021/12/14 08:33:55;;;;;;;39.72;29.25;;;9.10;79.10;;;;;;4959029;28;20054;-72
2021/12/14 08:36:22;;;;;;;40.35;30.25;;;9.10;79.10;;;;;;4960972;28;20090;-72
2021/12/14 08:39:00;;;;;;;38.67;29.42;;;9.10;79.10;;;;;;4978425;28;20043;-73
2021/12/14 08:41:27;;;;;;;37.75;30.15;;;9.10;79.10;;;;;;4976096;28;20058;-72
2021/12/14 08:43:54;;;;;;;41.00;29.88;;;9.10;79.10;;;;;;4973404;28;20055;-73
2021/12/14 08:46:26;;;;;;;41.90;31.05;;;9.10;79.10;;;;;;4957395;28;20117;-73
2021/12/14 08:48:56;;;;;;;39.45;29.70;;;9.10;79.10;;;;;;4958652;28;20047;-73
2021/12/14 08:51:35;;;;;;;38.05;29.83;;;9.10;79.10;;;;;;4957500;28;20074;-72
2021/12/14 08:54:04;;;;;;;37.95;29.42;;;9.20;79.20;;;;;;4977877;28;20062;-72
2021/12/14 08:56:34;;;;;;;41.53;30.73;;;9.20;79.20;;;;;;4958503;28;20047;-72
2021/12/14 08:59:00;;;;;;;39.78;30.30;;;9.10;79.10;;;;;;4977946;28;20147;-72
2021/12/14 09:01:30;;;;;;;39.30;29.50;;;9.20;79.20;;;;;;4978050;28;20078;-72
2021/12/14 09:04:29;;;;;;;39.38;30.15;;;9.20;79.20;;;;;;4975917;28;20051;-72
2021/12/14 09:07:04;;;;;;;38.90;28.70;;;9.20;79.20;;;;;;4953861;29;20126;-72
2021/12/14 09:09:30;;;;;;;39.40;29.38;;;9.20;79.30;;;;;;4936904;29;20484;-72
2021/12/14 09:12:08;;;;;;;42.38;28.63;;;9.10;79.20;;;;;;4937669;29;20189;-72
2021/12/14 09:14:34;;;;;;;35.80;26.77;;;9.20;79.30;;;;;;4937084;29;20122;-72
2021/12/14 09:17:02;;;;;;;40.80;29.95;;;9.20;79.30;;;;;;4938461;29;20063;-73
2021/12/14 09:19:37;;;;;;;38.88;28.42;;;9.20;79.40;;;;;;4956185;29;20162;-72
2021/12/14 09:22:07;;;;;;;38.75;29.45;;;9.20;79.40;;;;;;4954241;29;20048;-73
2021/12/14 09:24:34;;;;;;;34.00;26.92;;;9.20;79.40;;;;;;4955951;29;20055;-72
2021/12/14 09:27:06;;;;;;;38.65;28.15;;;9.20;79.50;;;;;;4955214;29;20050;-73
2021/12/14 09:29:33;;;;;;;37.78;28.55;;;9.20;79.50;;;;;;4920812;29;20059;-72
2021/12/14 09:32:02;;;;;;;36.40;28.23;;;9.20;79.50;;;;;;4920849;29;20102;-72
2021/12/14 09:34:31;;;;;;;36.83;27.40;;;9.30;79.50;;;;;;4954656;29;20091;-73
2021/12/14 09:36:58;;;;;;;38.67;27.77;;;9.30;79.50;;;;;;4955546;29;20459;-73
2021/12/14 09:39:29;;;;;;;36.10;27.33;;;9.30;79.50;;;;;;4955193;29;20043;-73
2021/12/14 09:41:57;;;;;;;37.92;28.08;;;9.30;79.50;;;;;;4955871;29;20062;-73
2021/12/14 09:44:26;;;;;;;37.95;28.02;;;9.30;79.50;;;;;;4969436;28;20050;-73
2021/12/14 09:46:55;;;;;;;36.63;27.75;;;9.30;79.50;;;;;;4977289;28;20445;-73
2021/12/14 09:49:21;;;;;;;35.08;26.65;;;9.30;79.50;;;;;;4991031;28;20051;-73
2021/12/14 09:51:55;;;;;;;38.53;27.85;;;9.30;79.90;;;;;;4976461;28;20090;-73
2021/12/14 09:54:25;;;;;;;38.20;27.53;;;9.30;79.50;;;;;;4961583;28;20035;-73
2021/12/14 09:56:59;;;;;;;36.25;27.50;;;9.30;79.50;;;;;;4976760;28;20051;-74
2021/12/14 09:59:25;;;;;;;35.72;26.35;;;9.30;79.60;;;;;;4960851;28;20040;-73
2021/12/14 10:01:56;;;;;;;39.13;28.17;;;9.40;79.60;;;;;;4957518;28;20058;-73
2021/12/14 10:04:26;;;;;;;35.08;27.20;;;9.40;79.60;;;;;;4958101;28;20048;-73
2021/12/14 10:06:53;;;;;;;35.38;26.17;;;9.40;79.60;;;;;;4959556;28;20043;-72
2021/12/14 10:09:25;;;;;;;35.67;25.95;;;9.30;79.60;;;;;;4970262;28;20058;-72
2021/12/14 10:14:53;;;;;;;38.70;26.77;;;9.40;79.70;;;;;;4958028;28;20058;-73
2021/12/14 10:17:24;;;;;;;34.20;26.75;;;9.40;79.70;;;;;;4955061;29;20091;-73
2021/12/14 10:19:50;;;;;;;35.50;26.50;;;9.40;79.70;;;;;;4955083;28;20506;-73
2021/12/14 10:22:24;;;;;;;38.15;26.98;;;9.40;79.60;;;;;;4974033;28;20034;-73
2021/12/14 10:24:59;;;;;;;36.67;26.40;;;9.40;79.70;;;;;;4971431;28;20129;-72
2021/12/14 10:27:29;;;;;;;35.05;25.05;;;9.40;79.70;;;;;;4974167;28;20054;-73
2021/12/14 10:29:56;;;;;;;36.97;27.00;;;9.40;79.60;;;;;;4943496;29;20062;-73
2021/12/14 10:32:30;;;;;;;34.83;25.65;;;9.40;79.60;;;;;;4955025;29;20541;-73
2021/12/14 10:35:06;;;;;;;35.72;25.42;;;9.40;79.70;;;;;;4955806;28;20488;-73
2021/12/14 10:37:53;;;;;;;36.15;25.15;;;9.50;79.70;;;;;;4966034;28;20114;-73
2021/12/14 10:43:17;;;;;;;30.95;23.30;;;9.40;79.60;;;;;;4973968;28;20491;-73
2021/12/14 10:45:49;;;;;;;36.28;25.98;;;9.50;79.70;;;;;;4939656;29;20118;-73
2021/12/14 10:48:17;;;;;;;34.00;25.52;;;9.40;79.60;;;;;;4954512;29;20050;-72
2021/12/14 10:50:43;;;;;;;34.05;24.50;;;9.50;80.10;;;;;;4973104;28;20046;-73
2021/12/14 10:53:10;;;;;;;32.20;23.70;;;9.50;79.60;;;;;;4975951;28;20046;-73
2021/12/14 10:55:43;;;;;;;34.38;25.23;;;9.50;79.70;;;;;;4978012;28;20406;-73
2021/12/14 10:58:11;;;;;;;36.38;26.88;;;9.50;79.70;;;;;;4991729;28;20477;-73
2021/12/14 11:00:52;;;;;;;34.90;25.60;;;9.50;79.70;;;;;;4994440;28;20054;-73
2021/12/14 11:03:26;;;;;;;31.48;23.40;;;9.50;79.70;;;;;;4995214;28;20046;-73
2021/12/14 11:05:56;;;;;;;;;;;9.40;79.70;;;;;;4991082;28;20051;-73
2021/12/14 11:08:45;;;;;;;33.15;25.38;;;9.40;79.40;;;;;;4958449;28;19918;-74
2021/12/14 11:11:21;;;;;;;34.55;25.10;;;9.50;79.80;;;;;;4975458;28;20054;-73
2021/12/14 11:13:50;;;;;;;31.58;23.50;;;9.50;79.80;;;;;;4975554;28;20055;-73
2021/12/14 11:16:34;;;;;;;34.30;24.73;;;9.50;79.80;;;;;;4976648;28;20094;-73
2021/12/14 11:19:06;;;;;;;36.25;24.75;;;9.50;79.90;;;;;;4975592;28;20043;-73
2021/12/14 11:21:33;;;;;;;33.15;22.83;;;9.50;80.00;;;;;;4994212;28;20050;-74
2021/12/14 11:23:59;;;;;;;35.00;23.58;;;9.50;79.90;;;;;;4993899;28;20213;-73
2021/12/14 11:26:34;;;;;;;32.55;23.63;;;9.50;80.00;;;;;;4992208;28;20043;-74
2021/12/14 11:29:05;;;;;;;35.55;24.27;;;9.60;80.10;;;;;;4977464;28;20505;-73
2021/12/14 11:31:43;;;;;;;32.08;22.05;;;9.60;80.10;;;;;;4975242;28;20495;-73
2021/12/14 11:34:12;;;;;;;31.00;23.50;;;9.60;80.50;;;;;;4976213;28;20045;-73
2021/12/14 11:36:52;;;;;;;30.30;22.58;;;9.60;80.10;;;;;;4993511;28;20489;-73
2021/12/14 11:39:24;;;;;;;31.40;22.58;;;9.60;80.10;;;;;;4976899;28;20125;-74
2021/12/14 11:41:54;;;;;;;32.65;22.38;;;9.60;80.10;;;;;;4975169;28;20125;-74
2021/12/14 11:44:40;;;;;;;31.27;23.58;;;9.60;80.10;;;;;;4974994;28;20045;-73
2021/12/14 11:50:12;;;;;;;31.38;22.00;;;9.60;80.20;;;;;;4982262;28;20098;-73
2021/12/14 11:52:40;;;;;;;29.73;22.05;;;9.60;80.20;;;;;;4986754;28;20047;-73
2021/12/14 11:55:39;;;;;;;31.23;23.02;;;9.60;80.20;;;;;;4973897;28;20089;-73
2021/12/14 11:58:28;;;;;;;30.60;21.77;;;9.60;80.10;;;;;;4895733;29;20052;-72
2021/12/14 12:01:03;;;;;;;31.27;22.48;;;9.70;80.20;;;;;;4896419;29;20084;-73
2021/12/14 12:03:36;;;;;;;28.35;21.60;;;9.70;80.30;;;;;;4895797;29;20511;-73
2021/12/14 12:06:14;;;;;;;28.27;20.92;;;9.70;80.20;;;;;;4895925;29;20067;-73
2021/12/14 12:11:40;;;;;;;30.45;22.25;;;9.70;80.20;;;;;;4895390;29;20136;-73
2021/12/14 12:14:18;;;;;;;31.30;21.67;;;9.70;80.30;;;;;;4896431;29;20073;-73
2021/12/14 12:16:43;;;;;;;30.38;22.17;;;9.70;80.30;;;;;;4895246;29;20083;-73
2021/12/14 12:19:26;;;;;;;32.58;23.13;;;9.70;80.30;;;;;;4896373;29;20080;-73
2021/12/14 12:21:52;;;;;;;31.27;22.50;;;9.70;80.20;;;;;;4895312;29;20113;-73
2021/12/14 12:24:41;;;;;;;29.35;20.60;;;9.70;80.20;;;;;;4896257;29;20087;-73
2021/12/14 12:27:31;;;;;;;29.23;22.13;;;9.70;80.20;;;;;;4879815;29;20076;-74
2021/12/14 12:30:06;;;;;;;29.25;21.85;;;9.70;80.30;;;;;;4880454;29;20076;-73
2021/12/14 12:32:32;;;;;;;30.33;22.52;;;9.70;80.30;;;;;;4895674;29;20092;-74
2021/12/14 12:34:58;;;;;;;35.45;22.92;;;9.70;80.30;;;;;;4956700;28;20058;-73
2021/12/14 12:37:42;;;;;;;32.10;22.88;;;9.70;80.30;;;;;;4984408;28;20050;-74
2021/12/14 12:40:15;;;;;;;31.90;23.20;;;9.80;80.40;;;;;;4976143;28;20050;-75
2021/12/14 12:42:42;;;;;;;34.40;22.85;;;9.80;80.40;;;;;;4987073;28;20402;-74
2021/12/14 12:45:34;;;;;;;29.77;21.67;;;9.80;80.40;;;;;;4976235;28;20398;-74
2021/12/14 12:48:03;;;;;;;32.80;21.70;;;9.80;80.50;;;;;;4990681;28;20053;-74
2021/12/14 12:50:29;;;;;;;36.25;22.92;;;9.70;80.50;;;;;;4977098;28;20057;-74
2021/12/14 12:52:56;;;;;;;30.38;22.40;;;9.80;80.60;;;;;;4978191;28;20150;-73
2021/12/14 12:55:34;;;;;;;34.60;23.77;;;9.80;80.60;;;;;;4978018;28;20525;-73
2021/12/14 12:58:12;;;;;;;35.03;23.05;;;9.80;80.60;;;;;;4997468;28;20117;-74
2021/12/14 13:00:43;;;;;;;34.90;23.80;;;9.80;80.70;;;;;;4996585;28;20050;-73
2021/12/14 13:03:26;;;;;;;36.17;24.23;;;9.80;80.80;;;;;;4997375;28;20038;-74
2021/12/14 13:06:02;;;;;;;30.55;20.70;;;9.80;80.80;;;;;;4993841;28;20047;-74
2021/12/14 13:08:47;;;;;;;32.35;23.27;;;9.80;80.80;;;;;;4997200;28;20046;-74
2021/12/14 13:11:26;;;;;;;33.85;23.58;;;9.80;80.90;;;;;;4990663;28;20097;-81
2021/12/14 13:13:56;;;;;;;33.20;22.48;;;9.80;80.90;;;;;;4978411;28;20046;-80
2021/12/14 13:16:23;;;;;;;30.92;21.65;;;9.80;80.90;;;;;;4989407;28;20031;-81
2021/12/14 13:19:01;;;;;;;32.38;21.77;;;9.80;80.90;;;;;;4977689;28;20402;-80
2021/12/14 13:21:30;;;;;;;35.55;23.42;;;9.90;81.00;;;;;;4988615;28;20045;-81
2021/12/14 13:24:19;;;;;;;31.13;21.50;;;9.90;81.10;;;;;;4977174;28;20050;-82
2021/12/14 13:26:47;;;;;;;33.58;22.98;;;9.90;81.10;;;;;;4979222;28;20058;-80
2021/12/14 13:29:15;;;;;;;31.60;21.60;;;9.90;81.20;;;;;;4992193;28;20051;-81
2021/12/14 13:31:43;;;;;;;31.50;22.50;;;9.90;81.10;;;;;;4987846;28;20050;-81
2021/12/14 13:34:14;;;;;;;31.52;21.48;;;9.90;81.20;;;;;;4978572;28;20505;-81
2021/12/14 13:36:41;;;;;;;31.50;21.83;;;10.00;81.40;;;;;;4987124;28;20046;-81
2021/12/14 13:39:10;;;;;;;28.95;19.70;;;9.90;81.30;;;;;;4973554;28;20813;-81
2021/12/14 13:41:51;;;;;;;32.88;21.30;;;10.00;81.40;;;;;;4981272;28;20856;-80
2021/12/14 13:44:17;;;;;;;29.05;19.65;;;10.00;81.40;;;;;;4992929;28;20054;-81